Nrc Patriot II — WDA8587 — position and weather

sailwx.info

Track history (hours):
 
Tides and Currents Weather Stations Pressure Air Temp Water Temp Dewpoint Dewpoint Depression Visibility Wind Speed Wind Dir Waves Ship Positions

Nrc Patriot II

Owner: National Response Corporation, The Woodlands, TX. More information available from US FCC via Universal Licensing System and Coast Guard Vessel Documentation Center.

Last reported at 2017-Oct-09 17:04 UTC. Time now 2017-Oct-20 09:08 UTC.
Position N 33°44' W 118°16'.
Warning: this ship's position is 10 days out of date.

Length 30 m; draft 3.5 m.

Type: Port tender. MMSI: 366855940.

Date/timePositionNaut miles runAvg speedWind from/ knotsBaromVisibWave heightAir tempDewpointWater temp
2017-Oct-09 17:04N 33°44' W 118°16'0 5.8
2017-Oct-09 17:00N 33°44' W 118°16'1 0.5
2017-Oct-09 15:56N 33°44' W 118°16'13 3.5
2017-Oct-09 12:05N 33°46' W 118°32'2 9.7
2017-Oct-09 11:54N 33°47' W 118°34'4 9.6
2017-Oct-09 11:27N 33°49' W 118°39'4 8.8
2017-Oct-09 11:00N 33°51' W 118°42'6 8.6
2017-Oct-09 10:20N 33°55' W 118°48'3 8.9
2017-Oct-09 10:00N 33°57' W 118°51'4 8.8
2017-Oct-09 09:30N 33°59' W 118°56'4 8.9
2017-Oct-09 09:00N 34°01' W 119°00'5 9.0
2017-Oct-09 08:29N 34°02' W 119°06'4 8.9
2017-Oct-09 08:00N 34°05' W 119°09'5 9.0
2017-Oct-09 07:26N 34°09' W 119°14'1 0.3
2017-Oct-09 03:17N 34°10' W 119°13'0 0.0
2017-Oct-09 02:59N 34°10' W 119°13'0 0.0
2017-Oct-09 00:20N 34°10' W 119°13'0 0.0
2017-Oct-08 23:59N 34°10' W 119°13'0 0.0
2017-Oct-08 23:23N 34°10' W 119°13'0 0.0
2017-Oct-08 22:23N 34°10' W 119°13'0 0.0
2017-Oct-08 21:59N 34°10' W 119°13'0 0.0
2017-Oct-08 21:29N 34°10' W 119°13'0 0.0
2017-Oct-08 20:59N 34°10' W 119°13'0 0.0
2017-Oct-08 20:29N 34°10' W 119°13'0 0.0
2017-Oct-08 19:59N 34°10' W 119°13'0 0.0
2017-Oct-08 19:26N 34°10' W 119°13'0 0.0
2017-Oct-08 18:53N 34°10' W 119°13'0 0.0
2017-Oct-08 18:29N 34°10' W 119°13'0 0.0
2017-Oct-08 17:53N 34°10' W 119°13'0 0.0
2017-Oct-08 17:26N 34°10' W 119°13'0 0.0
2017-Oct-08 16:56N 34°10' W 119°13'0 0.0
2017-Oct-08 16:29N 34°10' W 119°13'0 0.0
2017-Oct-08 15:59N 34°10' W 119°13'0 0.0
2017-Oct-08 15:29N 34°10' W 119°13'0 0.0
2017-Oct-08 14:59N 34°10' W 119°13'0 0.0
2017-Oct-08 14:26N 34°10' W 119°13'0 0.0
2017-Oct-08 13:59N 34°10' W 119°13'0 0.0
2017-Oct-08 13:29N 34°10' W 119°13'0 0.0
2017-Oct-08 12:35N 34°10' W 119°13'0 0.0
2017-Oct-08 12:29N 34°10' W 119°13'0 0.0
2017-Oct-08 11:56N 34°10' W 119°13'0 0.0
2017-Oct-08 11:29N 34°10' W 119°13'0 0.0
2017-Oct-08 10:59N 34°10' W 119°13'0 0.0
2017-Oct-08 10:29N 34°10' W 119°13'0 0.0
2017-Oct-08 09:59N 34°10' W 119°13'0 0.0
2017-Oct-08 09:26N 34°10' W 119°13'0 0.0
2017-Oct-08 08:59N 34°10' W 119°13'0 0.0
2017-Oct-08 08:29N 34°10' W 119°13'0 0.0
2017-Oct-08 07:59N 34°10' W 119°13'0 0.0
2017-Oct-08 07:29N 34°10' W 119°13'0 0.0
2017-Oct-08 06:59N 34°10' W 119°13'0 0.0
2017-Oct-08 06:26N 34°10' W 119°13'0 0.0
2017-Oct-08 05:08N 34°10' W 119°13'0 0.0
2017-Oct-08 04:53N 34°10' W 119°13'0 0.0
2017-Oct-08 01:47N 34°10' W 119°13'0 0.0
2017-Oct-08 01:26N 34°10' W 119°13'0 0.0
2017-Oct-08 00:59N 34°10' W 119°13'0 0.0
2017-Oct-08 00:26N 34°10' W 119°13'0 0.0
2017-Oct-07 23:47N 34°10' W 119°13'0 0.0
2017-Oct-07 23:29N 34°10' W 119°13'0 0.0
2017-Oct-07 22:56N 34°10' W 119°13'0 0.0
2017-Oct-07 22:11N 34°10' W 119°13'0 0.0
2017-Oct-07 10:56N 34°10' W 119°13'0 0.0
2017-Oct-07 06:29N 34°10' W 119°13'0 0.0
2017-Oct-07 05:50N 34°10' W 119°13'0 0.0
2017-Oct-07 05:23N 34°10' W 119°13'0 0.0
2017-Oct-07 04:44N 34°10' W 119°13'0 0.0
2017-Oct-07 04:26N 34°10' W 119°13'0 0.0
2017-Oct-07 02:56N 34°10' W 119°13'0 0.0
2017-Oct-07 01:53N 34°10' W 119°13'0 0.0
2017-Oct-07 01:23N 34°10' W 119°13'0 0.0
2017-Oct-07 00:56N 34°10' W 119°13'0 0.0
2017-Oct-06 23:23N 34°10' W 119°13'0 0.0
2017-Oct-06 21:05N 34°10' W 119°13'0 0.0
2017-Oct-06 20:41N 34°10' W 119°13'0 0.0
2017-Oct-06 18:47N 34°10' W 119°13'0 0.0
2017-Oct-06 18:23N 34°10' W 119°13'0 0.0
2017-Oct-06 17:56N 34°10' W 119°13'0 0.0
2017-Oct-06 17:17N 34°10' W 119°13'0 0.0
2017-Oct-06 16:56N 34°10' W 119°13'0 0.0
2017-Oct-06 16:26N 34°10' W 119°13'0 0.0
2017-Oct-06 15:53N 34°10' W 119°13'0 0.0
2017-Oct-06 15:29N 34°10' W 119°13'0 0.0
2017-Oct-06 14:56N 34°10' W 119°13'0 0.0
2017-Oct-06 14:23N 34°10' W 119°13'0 0.0
2017-Oct-06 13:59N 34°10' W 119°13'0 0.0
2017-Oct-06 13:29N 34°10' W 119°13'0 0.0
2017-Oct-06 12:59N 34°10' W 119°13'0 0.0
2017-Oct-06 12:29N 34°10' W 119°13'0 0.0
2017-Oct-06 11:23N 34°10' W 119°13'0 0.0
2017-Oct-06 10:38N 34°10' W 119°13'0 0.0
2017-Oct-06 09:11N 34°10' W 119°13'0 0.0
2017-Oct-06 08:56N 34°10' W 119°13'0 0.0
2017-Oct-06 08:29N 34°10' W 119°13'0 0.0
2017-Oct-06 07:59N 34°10' W 119°13'0 0.0
2017-Oct-06 07:26N 34°10' W 119°13'0 0.0
2017-Oct-06 06:59N 34°10' W 119°13'0 0.0
2017-Oct-06 06:29N 34°10' W 119°13'0 0.0
2017-Oct-06 05:59N 34°10' W 119°13'0 0.0
2017-Oct-06 05:14N 34°10' W 119°13'0 0.0
2017-Oct-06 04:56N 34°10' W 119°13'0 0.0
2017-Oct-06 04:29N 34°10' W 119°13'0 0.0
2017-Oct-06 03:17N 34°10' W 119°13'0 0.0
2017-Oct-06 01:56N 34°10' W 119°13'0 0.0
2017-Oct-06 00:20N 34°10' W 119°13'0 0.0
2017-Oct-05 23:47N 34°10' W 119°13'0 0.0
2017-Oct-05 23:26N 34°10' W 119°13'0 0.0
2017-Oct-05 22:59N 34°10' W 119°13'0 0.0
2017-Oct-05 22:26N 34°10' W 119°13'0 0.0
2017-Oct-05 21:56N 34°10' W 119°13'0 0.0
2017-Oct-05 21:29N 34°10' W 119°13'0 0.0
2017-Oct-05 18:47N 34°10' W 119°13'0 0.0
2017-Oct-05 18:11N 34°10' W 119°13'0 0.0
2017-Oct-05 17:59N 34°10' W 119°13'0 0.0
2017-Oct-05 17:29N 34°10' W 119°13'0 0.0
2017-Oct-05 14:53N 34°10' W 119°13'0 0.0
2017-Oct-05 14:29N 34°10' W 119°13'0 0.0
2017-Oct-05 13:59N 34°10' W 119°13'0 0.0
2017-Oct-05 12:35N 34°10' W 119°13'0 0.1
2017-Oct-05 12:29N 34°10' W 119°13'0 0.0
2017-Oct-05 11:41N 34°10' W 119°13'0 0.0
2017-Oct-05 11:29N 34°10' W 119°13'0 0.0
2017-Oct-05 10:59N 34°10' W 119°13'0 0.0
2017-Oct-05 10:23N 34°10' W 119°13'0 0.0
2017-Oct-05 09:59N 34°10' W 119°13'0 0.0
2017-Oct-05 09:11N 34°10' W 119°13'0 0.0
2017-Oct-05 08:41N 34°10' W 119°13'0 0.0
2017-Oct-05 07:56N 34°10' W 119°13'0 0.0
2017-Oct-05 07:23N 34°10' W 119°13'0 0.0
2017-Oct-05 06:59N 34°10' W 119°13'0 0.0
2017-Oct-05 06:29N 34°10' W 119°13'0 0.0
2017-Oct-05 05:59N 34°10' W 119°13'0 0.0
2017-Oct-05 05:29N 34°10' W 119°13'0 0.0
2017-Oct-05 04:59N 34°10' W 119°13'0 0.0
2017-Oct-05 01:53N 34°10' W 119°13'0 0.0
2017-Oct-04 23:05N 34°10' W 119°13'0 0.0
2017-Oct-04 22:53N 34°10' W 119°13'0 0.0
2017-Oct-04 22:29N 34°10' W 119°13'0 0.0
2017-Oct-04 17:11N 34°10' W 119°13'0 0.0
2017-Oct-04 16:47N 34°10' W 119°13'0 0.0
2017-Oct-04 16:17N 34°10' W 119°13'0 0.0
2017-Oct-04 15:47N 34°10' W 119°13'0 0.0
2017-Oct-04 15:26N 34°10' W 119°13'0 0.0
2017-Oct-04 14:59N 34°10' W 119°13'0 0.0
2017-Oct-04 14:14N 34°10' W 119°13'0 0.0
2017-Oct-04 13:56N 34°10' W 119°13'0 0.0
2017-Oct-04 12:41N 34°10' W 119°13'0 0.0
2017-Oct-04 11:50N 34°10' W 119°13'0 0.0
2017-Oct-04 11:29N 34°10' W 119°13'0 0.0
2017-Oct-04 10:56N 34°10' W 119°13'0 0.0
2017-Oct-04 10:29N 34°10' W 119°13'0 0.0
2017-Oct-04 06:56N 34°10' W 119°13'0 0.0
2017-Oct-04 06:20N 34°10' W 119°13'0 0.0
2017-Oct-04 01:26N 34°10' W 119°13'0 0.0
2017-Oct-03 22:23N 34°10' W 119°13'0 0.0
2017-Oct-03 21:50N 34°10' W 119°13'0 0.0
2017-Oct-03 21:08N 34°10' W 119°13'0 0.0
2017-Oct-03 16:38N 34°10' W 119°13'0 0.0
2017-Oct-03 08:41N 34°10' W 119°13'0 0.0
2017-Oct-03 08:11N 34°10' W 119°13'0 0.0
2017-Oct-03 07:50N 34°10' W 119°13'0 0.0
2017-Oct-03 06:08N 34°10' W 119°13'0 0.0
2017-Oct-03 05:59N 34°10' W 119°13'0 0.0
2017-Oct-03 05:29N 34°10' W 119°13'0 0.0
2017-Oct-03 03:11N 34°10' W 119°13'0 0.0
2017-Oct-02 23:50N 34°10' W 119°13'0 0.0
2017-Oct-02 17:39N 34°10' W 119°13'0 0.0
2017-Oct-02 17:09N 34°10' W 119°13'0 0.0
2017-Oct-02 15:21N 34°10' W 119°13'0 0.0
2017-Oct-02 09:12N 34°10' W 119°13'0 0.0
2017-Oct-02 08:51N 34°10' W 119°13'0 0.0
2017-Oct-02 04:57N 34°10' W 119°13'0 0.0
2017-Oct-02 01:15N 34°10' W 119°13'0 0.0
2017-Oct-02 00:48N 34°10' W 119°13'0 0.0
2017-Oct-02 00:30N 34°10' W 119°13'0 0.0
2017-Oct-01 18:00N 34°10' W 119°13'0 0.0
2017-Oct-01 12:27N 34°10' W 119°13'0 0.0
2017-Oct-01 11:51N 34°10' W 119°13'0 0.0
2017-Oct-01 11:21N 34°10' W 119°13'0 0.0
2017-Sep-30 02:00N 34°10' W 119°13'0 0.0
2017-Sep-29 23:42N 34°10' W 119°13'0 0.0
2017-Sep-29 23:30N 34°10' W 119°13'0 0.0
2017-Sep-29 22:30N 34°10' W 119°13'0 0.0
2017-Sep-29 22:00N 34°10' W 119°13'0 0.0
2017-Sep-29 21:30N 34°10' W 119°13'0 0.0
2017-Sep-29 20:03N 34°10' W 119°13'0 0.0
2017-Sep-29 20:00N 34°10' W 119°13'0 0.0
2017-Sep-29 19:18N 34°10' W 119°13'0 0.0
2017-Sep-29 19:00N 34°10' W 119°13'0 0.0
2017-Sep-29 18:30N 34°10' W 119°13'0 0.0
2017-Sep-29 18:00N 34°10' W 119°13'0 0.0
2017-Sep-29 17:30N 34°10' W 119°13'  
Track history (hours):
 
Tides and Currents Weather Stations Pressure Air Temp Water Temp Dewpoint Dewpoint Depression Visibility Wind Speed Wind Dir Waves Ship Positions

Nrc Patriot II

Owner: National Response Corporation, The Woodlands, TX. More information available from US FCC via Universal Licensing System and Coast Guard Vessel Documentation Center.

Last reported at 2017-Oct-09 17:04 UTC. Time now 2017-Oct-20 09:08 UTC.
Position N 33°44' W 118°16'.
Warning: this ship's position is 10 days out of date.

Length 30 m; draft 3.5 m.

Type: Port tender. MMSI: 366855940.

Date/timePositionNaut miles runAvg speedWind from/ knotsBaromVisibWave heightAir tempDewpointWater temp
2017-Oct-09 17:04N 33°44' W 118°16'0 5.8
2017-Oct-09 17:00N 33°44' W 118°16'1 0.5
2017-Oct-09 15:56N 33°44' W 118°16'13 3.5
2017-Oct-09 12:05N 33°46' W 118°32'2 9.7
2017-Oct-09 11:54N 33°47' W 118°34'4 9.6
2017-Oct-09 11:27N 33°49' W 118°39'4 8.8
2017-Oct-09 11:00N 33°51' W 118°42'6 8.6
2017-Oct-09 10:20N 33°55' W 118°48'3 8.9
2017-Oct-09 10:00N 33°57' W 118°51'4 8.8
2017-Oct-09 09:30N 33°59' W 118°56'4 8.9
2017-Oct-09 09:00N 34°01' W 119°00'5 9.0
2017-Oct-09 08:29N 34°02' W 119°06'4 8.9
2017-Oct-09 08:00N 34°05' W 119°09'5 9.0
2017-Oct-09 07:26N 34°09' W 119°14'1 0.3
2017-Oct-09 03:17N 34°10' W 119°13'0 0.0
2017-Oct-09 02:59N 34°10' W 119°13'0 0.0
2017-Oct-09 00:20N 34°10' W 119°13'0 0.0
2017-Oct-08 23:59N 34°10' W 119°13'0 0.0
2017-Oct-08 23:23N 34°10' W 119°13'0 0.0
2017-Oct-08 22:23N 34°10' W 119°13'0 0.0
2017-Oct-08 21:59N 34°10' W 119°13'0 0.0
2017-Oct-08 21:29N 34°10' W 119°13'0 0.0
2017-Oct-08 20:59N 34°10' W 119°13'0 0.0
2017-Oct-08 20:29N 34°10' W 119°13'0 0.0
2017-Oct-08 19:59N 34°10' W 119°13'0 0.0
2017-Oct-08 19:26N 34°10' W 119°13'0 0.0
2017-Oct-08 18:53N 34°10' W 119°13'0 0.0
2017-Oct-08 18:29N 34°10' W 119°13'0 0.0
2017-Oct-08 17:53N 34°10' W 119°13'0 0.0
2017-Oct-08 17:26N 34°10' W 119°13'0 0.0
2017-Oct-08 16:56N 34°10' W 119°13'0 0.0
2017-Oct-08 16:29N 34°10' W 119°13'0 0.0
2017-Oct-08 15:59N 34°10' W 119°13'0 0.0
2017-Oct-08 15:29N 34°10' W 119°13'0 0.0
2017-Oct-08 14:59N 34°10' W 119°13'0 0.0
2017-Oct-08 14:26N 34°10' W 119°13'0 0.0
2017-Oct-08 13:59N 34°10' W 119°13'0 0.0
2017-Oct-08 13:29N 34°10' W 119°13'0 0.0
2017-Oct-08 12:35N 34°10' W 119°13'0 0.0
2017-Oct-08 12:29N 34°10' W 119°13'0 0.0
2017-Oct-08 11:56N 34°10' W 119°13'0 0.0
2017-Oct-08 11:29N 34°10' W 119°13'0 0.0
2017-Oct-08 10:59N 34°10' W 119°13'0 0.0
2017-Oct-08 10:29N 34°10' W 119°13'0 0.0
2017-Oct-08 09:59N 34°10' W 119°13'0 0.0
2017-Oct-08 09:26N 34°10' W 119°13'0 0.0
2017-Oct-08 08:59N 34°10' W 119°13'0 0.0
2017-Oct-08 08:29N 34°10' W 119°13'0 0.0
2017-Oct-08 07:59N 34°10' W 119°13'0 0.0
2017-Oct-08 07:29N 34°10' W 119°13'0 0.0
2017-Oct-08 06:59N 34°10' W 119°13'0 0.0
2017-Oct-08 06:26N 34°10' W 119°13'0 0.0
2017-Oct-08 05:08N 34°10' W 119°13'0 0.0
2017-Oct-08 04:53N 34°10' W 119°13'0 0.0
2017-Oct-08 01:47N 34°10' W 119°13'0 0.0
2017-Oct-08 01:26N 34°10' W 119°13'0 0.0
2017-Oct-08 00:59N 34°10' W 119°13'0 0.0
2017-Oct-08 00:26N 34°10' W 119°13'0 0.0
2017-Oct-07 23:47N 34°10' W 119°13'0 0.0
2017-Oct-07 23:29N 34°10' W 119°13'0 0.0
2017-Oct-07 22:56N 34°10' W 119°13'0 0.0
2017-Oct-07 22:11N 34°10' W 119°13'0 0.0
2017-Oct-07 10:56N 34°10' W 119°13'0 0.0
2017-Oct-07 06:29N 34°10' W 119°13'0 0.0
2017-Oct-07 05:50N 34°10' W 119°13'0 0.0
2017-Oct-07 05:23N 34°10' W 119°13'0 0.0
2017-Oct-07 04:44N 34°10' W 119°13'0 0.0
2017-Oct-07 04:26N 34°10' W 119°13'0 0.0
2017-Oct-07 02:56N 34°10' W 119°13'0 0.0
2017-Oct-07 01:53N 34°10' W 119°13'0 0.0
2017-Oct-07 01:23N 34°10' W 119°13'0 0.0
2017-Oct-07 00:56N 34°10' W 119°13'0 0.0
2017-Oct-06 23:23N 34°10' W 119°13'0 0.0
2017-Oct-06 21:05N 34°10' W 119°13'0 0.0
2017-Oct-06 20:41N 34°10' W 119°13'0 0.0
2017-Oct-06 18:47N 34°10' W 119°13'0 0.0
2017-Oct-06 18:23N 34°10' W 119°13'0 0.0
2017-Oct-06 17:56N 34°10' W 119°13'0 0.0
2017-Oct-06 17:17N 34°10' W 119°13'0 0.0
2017-Oct-06 16:56N 34°10' W 119°13'0 0.0
2017-Oct-06 16:26N 34°10' W 119°13'0 0.0
2017-Oct-06 15:53N 34°10' W 119°13'0 0.0
2017-Oct-06 15:29N 34°10' W 119°13'0 0.0
2017-Oct-06 14:56N 34°10' W 119°13'0 0.0
2017-Oct-06 14:23N 34°10' W 119°13'0 0.0
2017-Oct-06 13:59N 34°10' W 119°13'0 0.0
2017-Oct-06 13:29N 34°10' W 119°13'0 0.0
2017-Oct-06 12:59N 34°10' W 119°13'0 0.0
2017-Oct-06 12:29N 34°10' W 119°13'0 0.0
2017-Oct-06 11:23N 34°10' W 119°13'0 0.0
2017-Oct-06 10:38N 34°10' W 119°13'0 0.0
2017-Oct-06 09:11N 34°10' W 119°13'0 0.0
2017-Oct-06 08:56N 34°10' W 119°13'0 0.0
2017-Oct-06 08:29N 34°10' W 119°13'0 0.0
2017-Oct-06 07:59N 34°10' W 119°13'0 0.0
2017-Oct-06 07:26N 34°10' W 119°13'0 0.0
2017-Oct-06 06:59N 34°10' W 119°13'0 0.0
2017-Oct-06 06:29N 34°10' W 119°13'0 0.0
2017-Oct-06 05:59N 34°10' W 119°13'0 0.0
2017-Oct-06 05:14N 34°10' W 119°13'0 0.0
2017-Oct-06 04:56N 34°10' W 119°13'0 0.0
2017-Oct-06 04:29N 34°10' W 119°13'0 0.0
2017-Oct-06 03:17N 34°10' W 119°13'0 0.0
2017-Oct-06 01:56N 34°10' W 119°13'0 0.0
2017-Oct-06 00:20N 34°10' W 119°13'0 0.0
2017-Oct-05 23:47N 34°10' W 119°13'0 0.0
2017-Oct-05 23:26N 34°10' W 119°13'0 0.0
2017-Oct-05 22:59N 34°10' W 119°13'0 0.0
2017-Oct-05 22:26N 34°10' W 119°13'0 0.0
2017-Oct-05 21:56N 34°10' W 119°13'0 0.0
2017-Oct-05 21:29N 34°10' W 119°13'0 0.0
2017-Oct-05 18:47N 34°10' W 119°13'0 0.0
2017-Oct-05 18:11N 34°10' W 119°13'0 0.0
2017-Oct-05 17:59N 34°10' W 119°13'0 0.0
2017-Oct-05 17:29N 34°10' W 119°13'0 0.0
2017-Oct-05 14:53N 34°10' W 119°13'0 0.0
2017-Oct-05 14:29N 34°10' W 119°13'0 0.0
2017-Oct-05 13:59N 34°10' W 119°13'0 0.0
2017-Oct-05 12:35N 34°10' W 119°13'0 0.1
2017-Oct-05 12:29N 34°10' W 119°13'0 0.0
2017-Oct-05 11:41N 34°10' W 119°13'0 0.0
2017-Oct-05 11:29N 34°10' W 119°13'0 0.0
2017-Oct-05 10:59N 34°10' W 119°13'0 0.0
2017-Oct-05 10:23N 34°10' W 119°13'0 0.0
2017-Oct-05 09:59N 34°10' W 119°13'0 0.0
2017-Oct-05 09:11N 34°10' W 119°13'0 0.0
2017-Oct-05 08:41N 34°10' W 119°13'0 0.0
2017-Oct-05 07:56N 34°10' W 119°13'0 0.0
2017-Oct-05 07:23N 34°10' W 119°13'0 0.0
2017-Oct-05 06:59N 34°10' W 119°13'0 0.0
2017-Oct-05 06:29N 34°10' W 119°13'0 0.0
2017-Oct-05 05:59N 34°10' W 119°13'0 0.0
2017-Oct-05 05:29N 34°10' W 119°13'0 0.0
2017-Oct-05 04:59N 34°10' W 119°13'0 0.0
2017-Oct-05 01:53N 34°10' W 119°13'0 0.0
2017-Oct-04 23:05N 34°10' W 119°13'0 0.0
2017-Oct-04 22:53N 34°10' W 119°13'0 0.0
2017-Oct-04 22:29N 34°10' W 119°13'0 0.0
2017-Oct-04 17:11N 34°10' W 119°13'0 0.0
2017-Oct-04 16:47N 34°10' W 119°13'0 0.0
2017-Oct-04 16:17N 34°10' W 119°13'0 0.0
2017-Oct-04 15:47N 34°10' W 119°13'0 0.0
2017-Oct-04 15:26N 34°10' W 119°13'0 0.0
2017-Oct-04 14:59N 34°10' W 119°13'0 0.0
2017-Oct-04 14:14N 34°10' W 119°13'0 0.0
2017-Oct-04 13:56N 34°10' W 119°13'0 0.0
2017-Oct-04 12:41N 34°10' W 119°13'0 0.0
2017-Oct-04 11:50N 34°10' W 119°13'0 0.0
2017-Oct-04 11:29N 34°10' W 119°13'0 0.0
2017-Oct-04 10:56N 34°10' W 119°13'0 0.0
2017-Oct-04 10:29N 34°10' W 119°13'0 0.0
2017-Oct-04 06:56N 34°10' W 119°13'0 0.0
2017-Oct-04 06:20N 34°10' W 119°13'0 0.0
2017-Oct-04 01:26N 34°10' W 119°13'0 0.0
2017-Oct-03 22:23N 34°10' W 119°13'0 0.0
2017-Oct-03 21:50N 34°10' W 119°13'0 0.0
2017-Oct-03 21:08N 34°10' W 119°13'0 0.0
2017-Oct-03 16:38N 34°10' W 119°13'0 0.0
2017-Oct-03 08:41N 34°10' W 119°13'0 0.0
2017-Oct-03 08:11N 34°10' W 119°13'0 0.0
2017-Oct-03 07:50N 34°10' W 119°13'0 0.0
2017-Oct-03 06:08N 34°10' W 119°13'0 0.0
2017-Oct-03 05:59N 34°10' W 119°13'0 0.0
2017-Oct-03 05:29N 34°10' W 119°13'0 0.0
2017-Oct-03 03:11N 34°10' W 119°13'0 0.0
2017-Oct-02 23:50N 34°10' W 119°13'0 0.0
2017-Oct-02 17:39N 34°10' W 119°13'0 0.0
2017-Oct-02 17:09N 34°10' W 119°13'0 0.0
2017-Oct-02 15:21N 34°10' W 119°13'0 0.0
2017-Oct-02 09:12N 34°10' W 119°13'0 0.0
2017-Oct-02 08:51N 34°10' W 119°13'0 0.0
2017-Oct-02 04:57N 34°10' W 119°13'0 0.0
2017-Oct-02 01:15N 34°10' W 119°13'0 0.0
2017-Oct-02 00:48N 34°10' W 119°13'0 0.0
2017-Oct-02 00:30N 34°10' W 119°13'0 0.0
2017-Oct-01 18:00N 34°10' W 119°13'0 0.0
2017-Oct-01 12:27N 34°10' W 119°13'0 0.0
2017-Oct-01 11:51N 34°10' W 119°13'0 0.0
2017-Oct-01 11:21N 34°10' W 119°13'0 0.0
2017-Sep-30 02:00N 34°10' W 119°13'0 0.0
2017-Sep-29 23:42N 34°10' W 119°13'0 0.0
2017-Sep-29 23:30N 34°10' W 119°13'0 0.0
2017-Sep-29 22:30N 34°10' W 119°13'0 0.0
2017-Sep-29 22:00N 34°10' W 119°13'0 0.0
2017-Sep-29 21:30N 34°10' W 119°13'0 0.0
2017-Sep-29 20:03N 34°10' W 119°13'0 0.0
2017-Sep-29 20:00N 34°10' W 119°13'0 0.0
2017-Sep-29 19:18N 34°10' W 119°13'0 0.0
2017-Sep-29 19:00N 34°10' W 119°13'0 0.0
2017-Sep-29 18:30N 34°10' W 119°13'0 0.0
2017-Sep-29 18:00N 34°10' W 119°13'0 0.0
2017-Sep-29 17:30N 34°10' W 119°13'  

Dump ship's entire track history